Airfield :
LOGIN :

Register | Disclaimer

   EN    FR    IT 

 










Legend :    VFR   Marginal VFR   IFR   Intensive IFR   Very Intensive IFR
Visi :
Ceiling :
>= 8 km
>= 3000ft
5 to 8 km
1000 to 3000 ft
1500m to 5 km
500 to 1000 ft
800 to 1500m
200 to 500 ft
< 800m
< 200 ft
Symbols :   Thunderstorms  Fog  Heavy snow  Heavy precipitations  Wind > 20 kt
SIGMETs :     Misc.  Thunderstorms  Icing  Turbulence  Mountain Waves  Volcanic Ashes






- Airport Elevation : 141 ft
- IATA code : SKS


EKSP - Srydstrup Vojens

CURRENT METAR :
  • 131450Z 16011KT 6000 -RA BKN009 05/03 Q0995 TEMPO 5000 BKN008

EXPIRED METARs :
  • 131436Z 16012KT 6000 -RA BKN009 04/03 Q0996 TEMPO 5000 BKN008
  • 131420Z 16012KT 8000 -RA BKN009 04/03 Q0996 TEMPO 5000 BKN008
  • 131350Z 15011KT 8000 -RA BKN009 04/03 Q0995 TEMPO 5000 BKN008
  • 131320Z 14012KT 8000 -RA BKN009 04/03 Q0996 TEMPO 6000 BKN008
  • 131250Z 15011KT 8000 -RA BKN009 04/03 Q0996 TEMPO 6000 BKN008
  • 131220Z 15011KT 9999 -RA BKN010 04/02 Q0996 TEMPO 6000 BKN008

TAF TAF EKSP
Valid from the 13 at 15:00 until the 14 at 15:00 UTC


131408Z 1315/1415 16015KT 8000 BKN015
TEMPO 1315/1318 17015G25KT 5000 -RA BKN008
TEMPO 1318/1404 3000 -SHRA BR BKN008 SCT020CB
BECMG 1321/1324 19008KT
TEMPO 1404/1410 1200 BR BKN001
BECMG 1410/1412 10010KT 5000 BR BKN008



MET'MAP, your aeronautical weather chart ! - Copyright ORBIFLY December 2007 - Disclaimer

ORBIFLY MET'MAP TEAM :

Programming & Development : Alexandra Zaïnal
Concept & Development : Baudouin d'Aumeries
Co-Development & Prog : Marc-Olivier Méhu
Technical & hardware support : Manuel Goepfert

Contact : metmap@orbifly.com




SOURCES & CREDITS :

   NOAA